This is the latest recevied weather packets stored in our database for station/object EA1JAO-11. If no packets are shown the sender has not sent any weather packets the latest 10 day(s).
| Time | Temp. | Humidity | Pressure | Rain* | Wind** | Luminosity | Snow |
|---|---|---|---|---|---|---|---|
| 1778123474 | 10° C | 95% | 1011.5 hPa | - | - | - | - |
| 1778121675 | 10.56° C | 95% | 1011.6 hPa | - | - | - | - |
| 1778119875 | 10.56° C | 94% | 1011.6 hPa | - | - | - | - |
| 1778118074 | 10.56° C | 93% | 1011.8 hPa | - | - | - | - |
| 1778116274 | 10.56° C | 92% | 1011.9 hPa | - | - | - | - |
| 1778114474 | 11.11° C | 92% | 1012.2 hPa | - | - | - | - |
| 1778112674 | 11.11° C | 91% | 1012.4 hPa | - | - | - | - |
| 1778110874 | 11.67° C | 89% | 1012.6 hPa | - | - | - | - |
| 1778109074 | 12.22° C | 87% | 1012.8 hPa | - | - | - | - |
| 1778107274 | 13.33° C | 83% | 1012.9 hPa | - | - | - | - |
| 1778105474 | 13.89° C | 80% | 1013.2 hPa | - | - | - | - |
| 1778103674 | 14.44° C | 77% | 1013.2 hPa | - | - | - | - |
| 1778101874 | 14.44° C | 76% | 1013.3 hPa | - | - | - | - |
| 1778100074 | 14.44° C | 77% | 1013.2 hPa | - | - | - | - |
| 1778098274 | 13.89° C | 85% | 1013.1 hPa | - | - | - | - |
| 1778096476 | 13.89° C | 84% | 1013.1 hPa | - | - | - | - |
| 1778095941 | 13.89° C | 85% | 1013.1 hPa | - | - | - | - |
| 1778094673 | 14.44° C | 82% | 1012.9 hPa | - | - | - | - |
| 1778092876 | 14.44° C | 78% | 1013.1 hPa | - | - | - | - |
| 1778091074 | 15.56° C | 74% | 1013.1 hPa | - | - | - | - |
| 1778089274 | 15.56° C | 73% | 1013.2 hPa | - | - | - | - |
| 1778085674 | 17.22° C | 69% | 1013.3 hPa | - | - | - | - |
| 1778083875 | 16.67° C | 68% | 1013.4 hPa | - | - | - | - |
| 1778082075 | 17.78° C | 65% | 1013.4 hPa | - | - | - | - |
| 1778080273 | 18.33° C | 63% | 1013.7 hPa | - | - | - | - |
* Rain since midnight (hover to see other rain measurements)
** Current wind speed in m/s (hover to see current wind gust speed)